Delray Beach, FL

12:48 AM EDT on July 04, 2015 (GMT -0400)
Delray Beach | | Change Station
CLOSE
Current Station
Personal Weather Station
Location: Delray Beach, FL
Elevation: 30 ft
Nearby Weather Stations

Elev 30 ft 26.47 °N, 80.09 °W | Updated 1 minute ago

Thunderstorm
Thunderstorm
71.4 °F
Feels Like 71.4 °F
N
2.7
Wind Variable Wind from NW
Gusts 2.7 mph

Today
High -- | Low -- °F
--% Chance of Precip.
Yesterday
High -- | Low -- °F
Precip. -- in
6:32 AM 8:17 PM
Waning Gibbous, 94% visible
Pressure 30.11 in
Visibility 10.0 miles
Clouds Few 2500 ft
Dew Point 69 °F
Humidity 92%
Rainfall 0.33 in
Snow Depth Not available.
UV 0 out of 12
Pollen 4.40 out of 12
Air Quality Not available.
Flu Activity Not available.
SPECI KPMP 040436Z AUTO 10006KT 10SM FEW025 28/24 A3011 RMK AO2 LTG DSNT ALQDS TSE08 T02830239

More Conditions Fewer Conditions

Pressure 30.11 in
Visibility 10.0 miles
Clouds Few 2500 ft
Dew Point 69 °F
Humidity 92%
Rainfall 0.33 in
Snow Depth Not available.
UV 0 out of 12
Pollen 4.40 out of 12
Air Quality Not available.
Flu Activity Not available.
SPECI KPMP 040436Z AUTO 10006KT 10SM FEW025 28/24 A3011 RMK AO2 LTG DSNT ALQDS TSE08 T02830239

More Conditions Fewer Conditions

Nowcast | as of 12:29 am EDT on July 4, 2015

At 1227 am EDT...Doppler radar indicated a line of thunderstorms... along a line extending from Ocean Ridge to near Mission Bay moving northwest at 10 mph. Frequent cloud to ground lightning...torrential downpours...and wind gusts to 35 mph can be expected. Locations impacted include... West Palm Beach...Boca Raton...Boynton Beach...Delray Beach... Wellington...Lake Worth...Palm Beach...Greenacres...Royal Palm Beach...and Palm Springs.

×

10-Day Weather Forecast

×

Almanac

Astronomy

Jul. 04, 2015 Rise Set
Actual Time
Civil Twilight
Nautical Twilight
Astronomical Twilight
Moon
Length of Visible Light
Length of Day
Tomorrow will be .
, % of the Moon is Illuminated

Today's Extremes

State Highs State Lows

Community

WunderPhotos

Upload Photos

1,834,931 photos uploaded!

WunderBlogs® & News

Nearby

Air Quality

  Air Quality AQ Index Pollutant
Not available.

Snow Depth

Station Depth Elevation

Earthquake Activity

City Distance Mag. Time & Date
Minimum magnitude displayed is 2.5.

Coastal Water Temperatures

Place Temperature

Stations

Nearby Weather Stations

Station Location Temp. Windchill Dew Point Humidity Wind Precip. Elev Updated Type